sensor_id;sensor_type;location;lat;lon;timestamp;pressure;altitude;pressure_sealevel;temperature;humidity
55077;BME280;40971;44.702;11.030;2023-03-16T00:01:05;101695.09;;;2.55;78.08
55077;BME280;40971;44.702;11.030;2023-03-16T00:11:09;101703.41;;;2.01;76.89
55077;BME280;40971;44.702;11.030;2023-03-16T00:21:13;101718.16;;;1.52;78.56
55077;BME280;40971;44.702;11.030;2023-03-16T00:31:14;101728.84;;;1.79;79.84
55077;BME280;40971;44.702;11.030;2023-03-16T00:41:15;101747.22;;;2.05;80.30
55077;BME280;40971;44.702;11.030;2023-03-16T00:51:19;101741.34;;;2.33;80.78
55077;BME280;40971;44.702;11.030;2023-03-16T01:01:23;101733.69;;;2.00;77.24
55077;BME280;40971;44.702;11.030;2023-03-16T01:11:25;101723.28;;;1.53;79.84
55077;BME280;40971;44.702;11.030;2023-03-16T01:21:29;101710.72;;;1.13;82.25
55077;BME280;40971;44.702;11.030;2023-03-16T01:31:33;101703.97;;;1.26;81.07
55077;BME280;40971;44.702;11.030;2023-03-16T01:41:39;101716.41;;;1.52;81.62
55077;BME280;40971;44.702;11.030;2023-03-16T01:51:46;101706.78;;;1.06;80.39
55077;BME280;40971;44.702;11.030;2023-03-16T02:01:52;101703.50;;;0.68;82.58
55077;BME280;40971;44.702;11.030;2023-03-16T02:11:53;101697.88;;;1.27;81.81
55077;BME280;40971;44.702;11.030;2023-03-16T02:22:07;101694.66;;;1.39;78.96
55077;BME280;40971;44.702;11.030;2023-03-16T02:32:10;101702.56;;;1.03;77.93
55077;BME280;40971;44.702;11.030;2023-03-16T02:42:16;101702.81;;;0.82;79.12
55077;BME280;40971;44.702;11.030;2023-03-16T02:52:18;101703.91;;;1.28;79.56
55077;BME280;40971;44.702;11.030;2023-03-16T03:02:19;101698.19;;;1.21;77.98
55077;BME280;40971;44.702;11.030;2023-03-16T03:12:20;101701.06;;;0.99;78.15
55077;BME280;40971;44.702;11.030;2023-03-16T03:22:22;101705.63;;;0.94;78.85
55077;BME280;40971;44.702;11.030;2023-03-16T03:32:25;101710.44;;;0.85;78.92
55077;BME280;40971;44.702;11.030;2023-03-16T03:42:26;101720.88;;;1.33;76.05
55077;BME280;40971;44.702;11.030;2023-03-16T03:52:27;101726.50;;;0.74;77.16
55077;BME280;40971;44.702;11.030;2023-03-16T04:02:28;101744.06;;;0.85;77.96
55077;BME280;40971;44.702;11.030;2023-03-16T04:12:30;101765.38;;;1.07;77.14
55077;BME280;40971;44.702;11.030;2023-03-16T04:22:32;101778.47;;;0.87;77.73
55077;BME280;40971;44.702;11.030;2023-03-16T04:32:34;101810.34;;;0.34;79.44
55077;BME280;40971;44.702;11.030;2023-03-16T04:42:35;101804.34;;;0.87;78.61
55077;BME280;40971;44.702;11.030;2023-03-16T04:52:37;101815.34;;;1.09;77.28
55077;BME280;40971;44.702;11.030;2023-03-16T05:02:39;101811.53;;;1.16;76.16
55077;BME280;40971;44.702;11.030;2023-03-16T05:12:41;101814.81;;;1.02;75.56
55077;BME280;40971;44.702;11.030;2023-03-16T05:22:44;101828.88;;;0.80;76.40
55077;BME280;40971;44.702;11.030;2023-03-16T05:32:46;101829.06;;;0.39;77.17
55077;BME280;40971;44.702;11.030;2023-03-16T05:42:52;101836.59;;;0.07;79.59
55077;BME280;40971;44.702;11.030;2023-03-16T05:52:54;101860.13;;;0.00;80.11
55077;BME280;40971;44.702;11.030;2023-03-16T06:02:54;101872.75;;;0.45;81.62
55077;BME280;40971;44.702;11.030;2023-03-16T06:12:56;101879.09;;;1.11;79.62
55077;BME280;40971;44.702;11.030;2023-03-16T06:22:57;101887.84;;;1.26;80.31
55077;BME280;40971;44.702;11.030;2023-03-16T06:32:59;101890.94;;;2.01;78.62
55077;BME280;40971;44.702;11.030;2023-03-16T06:43:02;101914.03;;;2.54;77.79
55077;BME280;40971;44.702;11.030;2023-03-16T06:53:03;101930.56;;;3.00;73.40
55077;BME280;40971;44.702;11.030;2023-03-16T07:03:03;101939.50;;;3.56;74.18
55077;BME280;40971;44.702;11.030;2023-03-16T07:13:06;101962.47;;;4.63;70.91
55077;BME280;40971;44.702;11.030;2023-03-16T07:23:08;101971.00;;;5.74;66.75
55077;BME280;40971;44.702;11.030;2023-03-16T07:33:09;101987.66;;;6.23;65.89
55077;BME280;40971;44.702;11.030;2023-03-16T07:43:10;102001.25;;;6.54;63.45
55077;BME280;40971;44.702;11.030;2023-03-16T07:53:12;102017.84;;;8.09;59.15
55077;BME280;40971;44.702;11.030;2023-03-16T08:03:16;102012.56;;;8.88;58.55
55077;BME280;40971;44.702;11.030;2023-03-16T08:13:21;102023.34;;;9.39;56.36
55077;BME280;40971;44.702;11.030;2023-03-16T08:23:24;102026.81;;;9.71;56.51
55077;BME280;40971;44.702;11.030;2023-03-16T08:33:26;102038.97;;;10.66;54.48
55077;BME280;40971;44.702;11.030;2023-03-16T08:43:30;102031.25;;;11.24;55.37
55077;BME280;40971;44.702;11.030;2023-03-16T08:53:32;102037.63;;;11.31;53.00
55077;BME280;40971;44.702;11.030;2023-03-16T09:03:34;102049.00;;;11.81;53.98
55077;BME280;40971;44.702;11.030;2023-03-16T09:13:36;102069.91;;;12.11;53.63
55077;BME280;40971;44.702;11.030;2023-03-16T09:23:40;102061.38;;;12.55;47.48
55077;BME280;40971;44.702;11.030;2023-03-16T09:33:45;102057.16;;;12.72;44.50
55077;BME280;40971;44.702;11.030;2023-03-16T09:53:58;102071.09;;;12.55;41.84
55077;BME280;40971;44.702;11.030;2023-03-16T10:04:11;102075.09;;;13.05;40.17
55077;BME280;40971;44.702;11.030;2023-03-16T10:14:29;102086.25;;;13.26;36.52
55077;BME280;40971;44.702;11.030;2023-03-16T10:24:53;102088.09;;;13.26;34.97
55077;BME280;40971;44.702;11.030;2023-03-16T10:35:01;102089.00;;;13.62;32.71
55077;BME280;40971;44.702;11.030;2023-03-16T10:45:04;102092.75;;;13.32;34.39
55077;BME280;40971;44.702;11.030;2023-03-16T10:55:26;102080.19;;;13.43;32.19
55077;BME280;40971;44.702;11.030;2023-03-16T11:05:33;102093.59;;;13.32;30.30
55077;BME280;40971;44.702;11.030;2023-03-16T11:15:39;102092.47;;;13.35;29.31
55077;BME280;40971;44.702;11.030;2023-03-16T11:25:46;102083.47;;;13.73;30.84
55077;BME280;40971;44.702;11.030;2023-03-16T11:36:00;102066.91;;;13.71;32.13
55077;BME280;40971;44.702;11.030;2023-03-16T12:17:14;102019.13;;;14.43;28.70
55077;BME280;40971;44.702;11.030;2023-03-16T12:27:24;102004.31;;;14.32;29.89
55077;BME280;40971;44.702;11.030;2023-03-16T12:38:09;101999.66;;;14.26;29.87
55077;BME280;40971;44.702;11.030;2023-03-16T12:58:23;101997.75;;;15.04;26.48
55077;BME280;40971;44.702;11.030;2023-03-16T13:08:25;101986.44;;;14.94;25.28
55077;BME280;40971;44.702;11.030;2023-03-16T13:18:35;101971.81;;;15.40;25.50
55077;BME280;40971;44.702;11.030;2023-03-16T13:28:37;101971.28;;;15.20;24.97
55077;BME280;40971;44.702;11.030;2023-03-16T13:38:38;101966.41;;;15.73;25.42
55077;BME280;40971;44.702;11.030;2023-03-16T13:48:39;101965.03;;;15.45;26.75
55077;BME280;40971;44.702;11.030;2023-03-16T13:58:46;101952.78;;;15.52;28.63
55077;BME280;40971;44.702;11.030;2023-03-16T14:08:50;101956.00;;;14.98;28.47
55077;BME280;40971;44.702;11.030;2023-03-16T14:19:17;101948.81;;;15.40;29.05
55077;BME280;40971;44.702;11.030;2023-03-16T14:29:29;101949.06;;;15.05;29.82
55077;BME280;40971;44.702;11.030;2023-03-16T14:39:31;101954.72;;;15.18;28.77
55077;BME280;40971;44.702;11.030;2023-03-16T14:49:35;101946.19;;;15.48;29.06
55077;BME280;40971;44.702;11.030;2023-03-16T14:59:36;101948.91;;;14.98;29.80
55077;BME280;40971;44.702;11.030;2023-03-16T15:09:40;101942.84;;;14.13;30.86
55077;BME280;40971;44.702;11.030;2023-03-16T15:19:45;101950.94;;;14.11;31.65
55077;BME280;40971;44.702;11.030;2023-03-16T15:29:46;101949.66;;;14.15;31.65
55077;BME280;40971;44.702;11.030;2023-03-16T15:39:47;101950.94;;;13.85;31.22
55077;BME280;40971;44.702;11.030;2023-03-16T15:49:49;101945.16;;;13.47;33.27
55077;BME280;40971;44.702;11.030;2023-03-16T15:59:50;101944.94;;;13.22;32.82
55077;BME280;40971;44.702;11.030;2023-03-16T16:09:52;101968.00;;;12.93;33.81
55077;BME280;40971;44.702;11.030;2023-03-16T16:19:54;101981.94;;;12.58;35.26
55077;BME280;40971;44.702;11.030;2023-03-16T16:29:55;101984.00;;;12.27;34.96
55077;BME280;40971;44.702;11.030;2023-03-16T16:39:56;101994.84;;;11.67;36.66
55077;BME280;40971;44.702;11.030;2023-03-16T16:49:58;102003.41;;;11.31;37.50
55077;BME280;40971;44.702;11.030;2023-03-16T16:59:59;102005.84;;;10.94;38.30
55077;BME280;40971;44.702;11.030;2023-03-16T17:10:02;102016.28;;;10.44;40.28
55077;BME280;40971;44.702;11.030;2023-03-16T17:20:12;102026.78;;;10.03;41.15
55077;BME280;40971;44.702;11.030;2023-03-16T17:30:25;102031.59;;;9.66;42.32
55077;BME280;40971;44.702;11.030;2023-03-16T17:40:28;102049.56;;;9.39;42.62
55077;BME280;40971;44.702;11.030;2023-03-16T17:50:29;102060.25;;;9.15;42.73
55077;BME280;40971;44.702;11.030;2023-03-16T18:00:34;102059.91;;;8.98;42.87
55077;BME280;40971;44.702;11.030;2023-03-16T18:10:35;102061.53;;;8.65;44.39
55077;BME280;40971;44.702;11.030;2023-03-16T18:20:36;102071.03;;;8.44;45.31
55077;BME280;40971;44.702;11.030;2023-03-16T18:30:41;102092.22;;;8.06;46.66
55077;BME280;40971;44.702;11.030;2023-03-16T18:40:42;102100.09;;;7.83;47.75
55077;BME280;40971;44.702;11.030;2023-03-16T18:50:43;102121.75;;;7.61;48.68
55077;BME280;40971;44.702;11.030;2023-03-16T19:00:49;102126.69;;;7.40;49.56
55077;BME280;40971;44.702;11.030;2023-03-16T19:10:56;102124.56;;;7.22;50.42
55077;BME280;40971;44.702;11.030;2023-03-16T19:20:58;102128.13;;;6.95;52.27
55077;BME280;40971;44.702;11.030;2023-03-16T19:31:01;102132.09;;;6.88;52.35
55077;BME280;40971;44.702;11.030;2023-03-16T19:41:04;102132.53;;;6.70;52.45
55077;BME280;40971;44.702;11.030;2023-03-16T19:51:15;102128.31;;;6.55;53.22
55077;BME280;40971;44.702;11.030;2023-03-16T20:11:44;102156.13;;;6.56;53.42
55077;BME280;40971;44.702;11.030;2023-03-16T20:21:45;102155.44;;;6.39;54.25
55077;BME280;40971;44.702;11.030;2023-03-16T20:31:46;102162.94;;;6.31;54.71
55077;BME280;40971;44.702;11.030;2023-03-16T20:41:47;102167.69;;;6.12;55.46
55077;BME280;40971;44.702;11.030;2023-03-16T20:51:50;102171.31;;;5.97;56.35
55077;BME280;40971;44.702;11.030;2023-03-16T21:01:52;102186.41;;;5.92;56.41
55077;BME280;40971;44.702;11.030;2023-03-16T21:11:55;102182.81;;;5.52;57.68
55077;BME280;40971;44.702;11.030;2023-03-16T21:21:56;102190.28;;;5.58;57.88
55077;BME280;40971;44.702;11.030;2023-03-16T21:31:57;102183.94;;;5.34;58.84
55077;BME280;40971;44.702;11.030;2023-03-16T21:41:58;102191.13;;;5.16;60.03
55077;BME280;40971;44.702;11.030;2023-03-16T21:52:00;102198.34;;;5.11;60.02
55077;BME280;40971;44.702;11.030;2023-03-16T22:02:13;102195.28;;;5.05;60.73
55077;BME280;40971;44.702;11.030;2023-03-16T22:12:17;102211.75;;;4.91;61.29
55077;BME280;40971;44.702;11.030;2023-03-16T22:22:18;102211.41;;;4.67;62.47
55077;BME280;40971;44.702;11.030;2023-03-16T22:32:20;102214.41;;;4.76;62.44
55077;BME280;40971;44.702;11.030;2023-03-16T22:42:35;102220.56;;;3.98;63.24
55077;BME280;40971;44.702;11.030;2023-03-16T22:52:37;102222.59;;;3.44;64.92
55077;BME280;40971;44.702;11.030;2023-03-16T23:02:39;102216.56;;;3.11;68.05
55077;BME280;40971;44.702;11.030;2023-03-16T23:12:40;102219.06;;;3.78;66.39
55077;BME280;40971;44.702;11.030;2023-03-16T23:22:41;102211.66;;;3.86;65.81
55077;BME280;40971;44.702;11.030;2023-03-16T23:32:45;102216.78;;;3.57;65.95
55077;BME280;40971;44.702;11.030;2023-03-16T23:42:47;102220.16;;;2.74;66.99
55077;BME280;40971;44.702;11.030;2023-03-16T23:52:48;102210.22;;;3.00;69.18
